SWR87 LIMC-LSZH
Flight info
| Callsign | SWR87 |
|---|---|
| Flight time | 0h 36m |
| Altitude | 26000 |
| Route | PEPAG DCT CANNE Z651 KELIP |
| Aircraft | A359/H-SDE2E3GHIJ3J4J5LM1ORWXY/LB1D1 |
Departure
| Time | 2026-02-17 14:46 |
|---|---|
| Airport | Milan Malpensa International Airport (LIMC) |
Arrival
| Time | 2026-02-17 15:22 |
|---|---|
| Airport | Zürich Airport (LSZH) |
| Time | Latitude | Longitude | Altitude | Speed | Heading |
|---|---|---|---|---|---|
| 2026-02-17 14:26 | 45.62411 | 8.71777 | 737 ft | 0 kts | 323° |
| 2026-02-17 14:32 | 45.62404 | 8.71784 | 735 ft | 3 kts | 340° |
| 2026-02-17 14:33 | 45.62385 | 8.71791 | 734 ft | 3 kts | 357° |
| 2026-02-17 14:33 | 45.62348 | 8.71787 | 735 ft | 3 kts | 34° |
| 2026-02-17 14:33 | 45.62334 | 8.71771 | 734 ft | 2 kts | 53° |
| 2026-02-17 14:34 | 45.62325 | 8.71751 | 733 ft | 0 kts | 85° |
| 2026-02-17 14:37 | 45.62328 | 8.71834 | 736 ft | 18 kts | 82° |
| 2026-02-17 14:38 | 45.62353 | 8.72019 | 736 ft | 17 kts | 79° |
| 2026-02-17 14:38 | 45.62360 | 8.72070 | 736 ft | 0 kts | 79° |
| 2026-02-17 14:38 | 45.62360 | 8.72072 | 736 ft | 0 kts | 79° |
| 2026-02-17 14:39 | 45.62360 | 8.72073 | 736 ft | 0 kts | 79° |
| 2026-02-17 14:39 | 45.62364 | 8.72100 | 736 ft | 7 kts | 79° |
| 2026-02-17 14:39 | 45.62368 | 8.72186 | 734 ft | 10 kts | 100° |
| 2026-02-17 14:39 | 45.62306 | 8.72240 | 734 ft | 14 kts | 167° |
| 2026-02-17 14:40 | 45.62195 | 8.72268 | 734 ft | 18 kts | 170° |
| 2026-02-17 14:40 | 45.62057 | 8.72307 | 732 ft | 22 kts | 169° |
| 2026-02-17 14:40 | 45.61708 | 8.72404 | 727 ft | 27 kts | 169° |
| 2026-02-17 14:41 | 45.61541 | 8.72448 | 723 ft | 21 kts | 169° |
| 2026-02-17 14:41 | 45.61433 | 8.72501 | 722 ft | 13 kts | 128° |
| 2026-02-17 14:41 | 45.61426 | 8.72529 | 722 ft | 0 kts | 102° |
| 2026-02-17 14:42 | 45.61425 | 8.72537 | 722 ft | 6 kts | 99° |
| 2026-02-17 14:43 | 45.61492 | 8.72717 | 723 ft | 9 kts | 359° |
| 2026-02-17 14:43 | 45.61524 | 8.72710 | 721 ft | 0 kts | 348° |
| 2026-02-17 14:45 | 45.61748 | 8.72645 | 727 ft | 71 kts | 348° |
| 2026-02-17 14:45 | 45.62484 | 8.72443 | 734 ft | 139 kts | 349° |
| 2026-02-17 14:45 | 45.63602 | 8.72132 | 1007 ft | 172 kts | 349° |
| 2026-02-17 14:46 | 45.64721 | 8.71795 | 2007 ft | 166 kts | 345° |
| 2026-02-17 14:46 | 45.65839 | 8.71038 | 2527 ft | 187 kts | 330° |
| 2026-02-17 14:46 | 45.66968 | 8.70027 | 2975 ft | 200 kts | 328° |
| 2026-02-17 14:47 | 45.69285 | 8.67605 | 4198 ft | 215 kts | 321° |
| 2026-02-17 14:47 | 45.70524 | 8.66352 | 4892 ft | 221 kts | 332° |
| 2026-02-17 14:47 | 45.72031 | 8.65874 | 5553 ft | 229 kts | 1° |
| 2026-02-17 14:47 | 45.73549 | 8.66576 | 6300 ft | 235 kts | 30° |
| 2026-02-17 14:48 | 45.74842 | 8.68048 | 7030 ft | 239 kts | 39° |
| 2026-02-17 14:48 | 45.76082 | 8.69638 | 7779 ft | 240 kts | 39° |
| 2026-02-17 14:48 | 45.77261 | 8.71359 | 8526 ft | 246 kts | 50° |
| 2026-02-17 14:48 | 45.77935 | 8.73653 | 9267 ft | 257 kts | 79° |
| 2026-02-17 14:49 | 45.77731 | 8.76251 | 9766 ft | 279 kts | 110° |
| 2026-02-17 14:49 | 45.76676 | 8.78707 | 10119 ft | 301 kts | 126° |
| 2026-02-17 14:49 | 45.75357 | 8.81168 | 10446 ft | 320 kts | 127° |
| 2026-02-17 14:49 | 45.73983 | 8.83764 | 10781 ft | 337 kts | 126° |
| 2026-02-17 14:50 | 45.72565 | 8.86498 | 11102 ft | 354 kts | 125° |
| 2026-02-17 14:50 | 45.71076 | 8.89394 | 11431 ft | 369 kts | 125° |
| 2026-02-17 14:50 | 45.69525 | 8.92445 | 11908 ft | 379 kts | 124° |
| 2026-02-17 14:51 | 45.67274 | 8.99215 | 12915 ft | 384 kts | 93° |
| 2026-02-17 14:51 | 45.67399 | 9.02966 | 13469 ft | 374 kts | 69° |
| 2026-02-17 14:51 | 45.68482 | 9.06246 | 14048 ft | 359 kts | 45° |
| 2026-02-17 14:51 | 45.70293 | 9.08540 | 14634 ft | 342 kts | 22° |
| 2026-02-17 14:52 | 45.72492 | 9.09610 | 15261 ft | 329 kts | 2° |
| 2026-02-17 14:52 | 45.74742 | 9.09565 | 15914 ft | 321 kts | 347° |
| 2026-02-17 14:52 | 45.76892 | 9.08782 | 16636 ft | 318 kts | 339° |
| 2026-02-17 14:52 | 45.78957 | 9.07667 | 17325 ft | 317 kts | 336° |
| 2026-02-17 14:53 | 45.80989 | 9.06448 | 18003 ft | 316 kts | 335° |
| 2026-02-17 14:53 | 45.83018 | 9.05241 | 18687 ft | 314 kts | 336° |
| 2026-02-17 14:53 | 45.85026 | 9.04103 | 19221 ft | 315 kts | 336° |
| 2026-02-17 14:53 | 45.87085 | 9.02996 | 19731 ft | 316 kts | 337° |
| 2026-02-17 14:54 | 45.89155 | 9.01930 | 20339 ft | 316 kts | 337° |
| 2026-02-17 14:54 | 45.91213 | 9.00895 | 20884 ft | 315 kts | 338° |
| 2026-02-17 14:54 | 45.93282 | 8.99865 | 21447 ft | 316 kts | 337° |
| 2026-02-17 14:55 | 45.97450 | 8.97792 | 22463 ft | 317 kts | 337° |
| 2026-02-17 14:55 | 45.99535 | 8.96748 | 22987 ft | 317 kts | 337° |
| 2026-02-17 14:55 | 46.01613 | 8.95703 | 23447 ft | 317 kts | 336° |
| 2026-02-17 14:55 | 46.03695 | 8.94657 | 23985 ft | 315 kts | 336° |
| 2026-02-17 14:56 | 46.05759 | 8.93620 | 24411 ft | 316 kts | 336° |
| 2026-02-17 14:56 | 46.07844 | 8.92572 | 24794 ft | 317 kts | 336° |
| 2026-02-17 14:56 | 46.09929 | 8.91518 | 25170 ft | 317 kts | 337° |
| 2026-02-17 14:56 | 46.11995 | 8.90475 | 25527 ft | 314 kts | 337° |
| 2026-02-17 14:57 | 46.14081 | 8.89421 | 25704 ft | 322 kts | 337° |
| 2026-02-17 14:57 | 46.16244 | 8.88487 | 25852 ft | 327 kts | 341° |
| 2026-02-17 14:57 | 46.18496 | 8.87885 | 25889 ft | 329 kts | 345° |
| 2026-02-17 14:57 | 46.20776 | 8.87455 | 25884 ft | 330 kts | 346° |
| 2026-02-17 14:58 | 46.23059 | 8.87092 | 25918 ft | 331 kts | 346° |
| 2026-02-17 14:58 | 46.25355 | 8.86760 | 25893 ft | 331 kts | 347° |
| 2026-02-17 14:58 | 46.27621 | 8.86438 | 25893 ft | 331 kts | 347° |
| 2026-02-17 14:59 | 46.32221 | 8.85777 | 25889 ft | 332 kts | 347° |
| 2026-02-17 14:59 | 46.34521 | 8.85440 | 25904 ft | 332 kts | 347° |
| 2026-02-17 14:59 | 46.36815 | 8.85106 | 25902 ft | 330 kts | 347° |
| 2026-02-17 14:59 | 46.39102 | 8.84764 | 25911 ft | 331 kts | 346° |
| 2026-02-17 15:00 | 46.41395 | 8.84409 | 25938 ft | 332 kts | 347° |
| 2026-02-17 15:00 | 46.43696 | 8.84055 | 25940 ft | 332 kts | 346° |
| 2026-02-17 15:00 | 46.45996 | 8.83706 | 25946 ft | 332 kts | 346° |
| 2026-02-17 15:00 | 46.48291 | 8.83362 | 25960 ft | 331 kts | 346° |
| 2026-02-17 15:01 | 46.50596 | 8.83011 | 25836 ft | 339 kts | 346° |
| 2026-02-17 15:01 | 46.53013 | 8.82627 | 25775 ft | 357 kts | 346° |
| 2026-02-17 15:01 | 46.55503 | 8.82234 | 25640 ft | 360 kts | 346° |
| 2026-02-17 15:01 | 46.57957 | 8.81867 | 25419 ft | 359 kts | 347° |
| 2026-02-17 15:02 | 46.60436 | 8.81505 | 25178 ft | 359 kts | 347° |
| 2026-02-17 15:02 | 46.62912 | 8.81143 | 24924 ft | 357 kts | 347° |
| 2026-02-17 15:02 | 46.65393 | 8.80773 | 24755 ft | 357 kts | 347° |
| 2026-02-17 15:03 | 46.70321 | 8.80027 | 24128 ft | 355 kts | 346° |
| 2026-02-17 15:03 | 46.72776 | 8.79656 | 23786 ft | 354 kts | 346° |
| 2026-02-17 15:03 | 46.75222 | 8.79286 | 23236 ft | 351 kts | 346° |
| 2026-02-17 15:03 | 46.77622 | 8.78925 | 22690 ft | 342 kts | 346° |
| 2026-02-17 15:04 | 46.79971 | 8.78571 | 22125 ft | 335 kts | 346° |
| 2026-02-17 15:04 | 46.82246 | 8.78228 | 21629 ft | 325 kts | 346° |
| 2026-02-17 15:04 | 46.84486 | 8.77884 | 21120 ft | 322 kts | 347° |
| 2026-02-17 15:04 | 46.86704 | 8.77540 | 20610 ft | 320 kts | 347° |
| 2026-02-17 15:05 | 46.88175 | 8.77315 | 20253 ft | 317 kts | 347° |
| 2026-02-17 15:05 | 46.90345 | 8.76984 | 19779 ft | 313 kts | 347° |
| 2026-02-17 15:05 | 46.93208 | 8.76542 | 19124 ft | 311 kts | 347° |
| 2026-02-17 15:05 | 46.95336 | 8.76209 | 18629 ft | 303 kts | 348° |
| 2026-02-17 15:06 | 46.97415 | 8.75896 | 18159 ft | 300 kts | 348° |
| 2026-02-17 15:06 | 46.98822 | 8.75674 | 17801 ft | 301 kts | 347° |
| 2026-02-17 15:06 | 47.00908 | 8.75338 | 17235 ft | 302 kts | 348° |
| 2026-02-17 15:07 | 47.05071 | 8.74675 | 16153 ft | 299 kts | 348° |
| 2026-02-17 15:07 | 47.07111 | 8.74352 | 15619 ft | 297 kts | 347° |
| 2026-02-17 15:07 | 47.09146 | 8.73937 | 15117 ft | 294 kts | 344° |
| 2026-02-17 15:07 | 47.11154 | 8.73369 | 14611 ft | 295 kts | 343° |
| 2026-02-17 15:08 | 47.13171 | 8.72793 | 14104 ft | 294 kts | 343° |
| 2026-02-17 15:08 | 47.15174 | 8.72241 | 13588 ft | 293 kts | 343° |
| 2026-02-17 15:08 | 47.17176 | 8.71702 | 13114 ft | 289 kts | 343° |
| 2026-02-17 15:08 | 47.19129 | 8.71186 | 12964 ft | 282 kts | 343° |
| 2026-02-17 15:09 | 47.21061 | 8.70673 | 12919 ft | 283 kts | 343° |
| 2026-02-17 15:09 | 47.23010 | 8.70152 | 12802 ft | 285 kts | 343° |
| 2026-02-17 15:09 | 47.24934 | 8.69638 | 12549 ft | 284 kts | 343° |
| 2026-02-17 15:09 | 47.26866 | 8.68967 | 12293 ft | 279 kts | 336° |
| 2026-02-17 15:10 | 47.28637 | 8.67965 | 12031 ft | 274 kts | 330° |
| 2026-02-17 15:10 | 47.30366 | 8.66795 | 11757 ft | 273 kts | 329° |
| 2026-02-17 15:10 | 47.32200 | 8.65970 | 11510 ft | 281 kts | 347° |
| 2026-02-17 15:11 | 47.35903 | 8.67941 | 11016 ft | 306 kts | 37° |
| 2026-02-17 15:11 | 47.37106 | 8.70548 | 10763 ft | 312 kts | 63° |
| 2026-02-17 15:11 | 47.37542 | 8.73680 | 10429 ft | 315 kts | 86° |
| 2026-02-17 15:11 | 47.37468 | 8.76902 | 10062 ft | 314 kts | 93° |
| 2026-02-17 15:12 | 47.37316 | 8.80103 | 9682 ft | 312 kts | 93° |
| 2026-02-17 15:12 | 47.37163 | 8.83272 | 9276 ft | 311 kts | 93° |
| 2026-02-17 15:12 | 47.37008 | 8.86463 | 8859 ft | 309 kts | 93° |
| 2026-02-17 15:12 | 47.36854 | 8.89608 | 8383 ft | 311 kts | 93° |
| 2026-02-17 15:13 | 47.36696 | 8.92785 | 7954 ft | 310 kts | 94° |
| 2026-02-17 15:13 | 47.36615 | 8.95936 | 7565 ft | 307 kts | 84° |
| 2026-02-17 15:13 | 47.37171 | 8.98891 | 7221 ft | 293 kts | 57° |
| 2026-02-17 15:13 | 47.38429 | 9.01073 | 7005 ft | 268 kts | 28° |
| 2026-02-17 15:14 | 47.40024 | 9.02051 | 6958 ft | 231 kts | 357° |
| 2026-02-17 15:14 | 47.41519 | 9.01740 | 6961 ft | 215 kts | 328° |
| 2026-02-17 15:14 | 47.42600 | 9.00362 | 6709 ft | 202 kts | 295° |
| 2026-02-17 15:15 | 47.42980 | 8.96341 | 6219 ft | 199 kts | 274° |
| 2026-02-17 15:15 | 47.43058 | 8.94302 | 5941 ft | 198 kts | 275° |
| 2026-02-17 15:15 | 47.43161 | 8.92273 | 5687 ft | 198 kts | 276° |
| 2026-02-17 15:15 | 47.43296 | 8.90254 | 5434 ft | 197 kts | 276° |
| 2026-02-17 15:16 | 47.43442 | 8.88234 | 5188 ft | 198 kts | 277° |
| 2026-02-17 15:16 | 47.43589 | 8.86231 | 5020 ft | 194 kts | 277° |
| 2026-02-17 15:16 | 47.43729 | 8.84284 | 4998 ft | 185 kts | 277° |
| 2026-02-17 15:16 | 47.43856 | 8.82486 | 5011 ft | 168 kts | 277° |
| 2026-02-17 15:17 | 47.43971 | 8.80845 | 5001 ft | 154 kts | 277° |
| 2026-02-17 15:17 | 47.44082 | 8.79306 | 4835 ft | 152 kts | 277° |
| 2026-02-17 15:17 | 47.44193 | 8.77749 | 4548 ft | 151 kts | 277° |
| 2026-02-17 15:17 | 47.44304 | 8.76175 | 4307 ft | 154 kts | 277° |
| 2026-02-17 15:18 | 47.44416 | 8.74606 | 4067 ft | 155 kts | 278° |
| 2026-02-17 15:18 | 47.44528 | 8.73037 | 3842 ft | 155 kts | 278° |
| 2026-02-17 15:18 | 47.44639 | 8.71461 | 3609 ft | 150 kts | 278° |
| 2026-02-17 15:19 | 47.44840 | 8.68620 | 3172 ft | 126 kts | 278° |
| 2026-02-17 15:19 | 47.44927 | 8.67399 | 2982 ft | 114 kts | 278° |
| 2026-02-17 15:19 | 47.45008 | 8.66245 | 2820 ft | 111 kts | 278° |
| 2026-02-17 15:19 | 47.45090 | 8.65116 | 2652 ft | 113 kts | 278° |
| 2026-02-17 15:20 | 47.45172 | 8.63958 | 2483 ft | 113 kts | 278° |
| 2026-02-17 15:20 | 47.45253 | 8.62815 | 2286 ft | 111 kts | 278° |
| 2026-02-17 15:20 | 47.45333 | 8.61683 | 2115 ft | 112 kts | 277° |
| 2026-02-17 15:20 | 47.45415 | 8.60528 | 1945 ft | 115 kts | 276° |
| 2026-02-17 15:21 | 47.45499 | 8.59350 | 1780 ft | 117 kts | 278° |
| 2026-02-17 15:21 | 47.45582 | 8.58177 | 1621 ft | 118 kts | 277° |
| 2026-02-17 15:21 | 47.45668 | 8.56981 | 1450 ft | 114 kts | 279° |
| 2026-02-17 15:21 | 47.45753 | 8.55891 | 1407 ft | 94 kts | 275° |
| 2026-02-17 15:22 | 47.45802 | 8.55057 | 1404 ft | 69 kts | 276° |
| 2026-02-17 15:22 | 47.45828 | 8.54583 | 1410 ft | 30 kts | 266° |
| 2026-02-17 15:22 | 47.45784 | 8.54356 | 1412 ft | 17 kts | 249° |
| 2026-02-17 15:23 | 47.45633 | 8.54239 | 1413 ft | 12 kts | 139° |
| 2026-02-17 15:23 | 47.45601 | 8.54333 | 1412 ft | 9 kts | 109° |
| 2026-02-17 15:23 | 47.45582 | 8.54427 | 1410 ft | 10 kts | 108° |
| 2026-02-17 15:23 | 47.45558 | 8.54535 | 1410 ft | 11 kts | 109° |
| 2026-02-17 15:24 | 47.45535 | 8.54635 | 1408 ft | 10 kts | 108° |
| 2026-02-17 15:24 | 47.45511 | 8.54751 | 1410 ft | 13 kts | 108° |
| 2026-02-17 15:24 | 47.45507 | 8.54766 | 1409 ft | 0 kts | 109° |
| 2026-02-17 15:25 | 47.45498 | 8.54807 | 1413 ft | 12 kts | 108° |
| 2026-02-17 15:25 | 47.45468 | 8.54927 | 1409 ft | 13 kts | 109° |
| 2026-02-17 15:25 | 47.45436 | 8.55069 | 1410 ft | 16 kts | 108° |
| 2026-02-17 15:26 | 47.45400 | 8.55228 | 1414 ft | 12 kts | 111° |
| 2026-02-17 15:26 | 47.45379 | 8.55289 | 1405 ft | 8 kts | 120° |
| 2026-02-17 15:26 | 47.45345 | 8.55377 | 1408 ft | 12 kts | 120° |
| 2026-02-17 15:27 | 47.45278 | 8.55564 | 1410 ft | 9 kts | 107° |
| 2026-02-17 15:27 | 47.45269 | 8.55670 | 1406 ft | 12 kts | 96° |
| 2026-02-17 15:27 | 47.45263 | 8.55754 | 1403 ft | 5 kts | 96° |
| 2026-02-17 15:27 | 47.45256 | 8.55795 | 1398 ft | 3 kts | 118° |
| 2026-02-17 15:28 | 47.45234 | 8.55810 | 1413 ft | 5 kts | 167° |
| 2026-02-17 15:28 | 47.45204 | 8.55810 | 1409 ft | 1 kts | 184° |
| 2026-02-17 15:28 | 47.45190 | 8.55808 | 1407 ft | 3 kts | 184° |
| 2026-02-17 15:28 | 47.45174 | 8.55806 | 1409 ft | 0 kts | 185° |